createdAt,value
2018-12-29T00:04:28.118Z,50.77
2018-12-29T00:10:02.466Z,54.10
2018-12-29T00:12:46.945Z,53.23
2018-12-29T00:15:30.735Z,51.53
2018-12-29T00:21:03.249Z,50.47
2018-12-29T00:23:47.733Z,57.47
2018-12-29T00:29:17.356Z,51.30
2018-12-29T00:34:50.032Z,55.73
2018-12-29T00:37:34.595Z,56.83
2018-12-29T00:45:51.096Z,54.20
2018-12-29T00:48:37.547Z,47.80
2018-12-29T00:51:22.223Z,50.00
2018-12-29T00:56:55.651Z,49.50
2018-12-29T01:02:28.441Z,51.20
2018-12-29T01:08:00.758Z,49.67
2018-12-29T01:13:32.960Z,50.43
2018-12-29T01:27:23.473Z,50.17
2018-12-29T01:30:09.971Z,47.60
2018-12-29T01:32:56.178Z,48.87
2018-12-29T01:35:42.255Z,46.77
2018-12-29T01:38:28.229Z,51.07
2018-12-29T01:41:14.460Z,46.13
2018-12-29T01:44:00.762Z,47.73
2018-12-29T01:46:46.754Z,50.10
2018-12-29T01:49:32.002Z,50.30
2018-12-29T01:55:05.594Z,45.90
2018-12-29T02:11:41.668Z,44.73
2018-12-29T02:19:59.989Z,44.87
2018-12-29T02:33:49.991Z,46.17
2018-12-29T02:44:53.922Z,41.70
2018-12-29T02:55:59.037Z,43.70
2018-12-29T03:09:51.345Z,44.30
2018-12-29T03:12:38.230Z,43.77
2018-12-29T03:15:24.555Z,38.20
2018-12-29T03:18:09.145Z,40.93
2018-12-29T03:29:10.387Z,41.93
2018-12-29T03:37:28.551Z,41.50
2018-12-29T03:45:49.238Z,41.77
2018-12-29T03:51:19.986Z,40.93
2018-12-29T04:02:24.321Z,41.57
2018-12-29T04:07:57.258Z,42.50
2018-12-29T04:16:16.316Z,38.57
2018-12-29T04:27:20.674Z,43.03
2018-12-29T04:35:42.128Z,37.67
2018-12-29T04:38:29.534Z,36.13
2018-12-29T04:41:16.778Z,40.27
2018-12-29T04:44:04.384Z,36.87
2018-12-29T04:46:51.508Z,33.27
2018-12-29T04:49:38.743Z,37.13
2018-12-29T04:52:25.848Z,39.30
2018-12-29T04:55:12.884Z,43.10
2018-12-29T04:57:59.968Z,37.00
2018-12-29T05:00:47.455Z,35.90
2018-12-29T05:03:31.415Z,39.50
2018-12-29T05:14:35.632Z,38.47
2018-12-29T05:28:25.633Z,35.20
2018-12-29T05:31:11.589Z,37.70
2018-12-29T05:33:57.228Z,39.83
2018-12-29T05:36:43.794Z,38.23
2018-12-29T05:39:29.925Z,36.07
2018-12-29T05:42:16.093Z,35.97
2018-12-29T05:45:03.714Z,39.43
2018-12-29T05:47:51.113Z,38.97
2018-12-29T05:50:32.827Z,37.00
2018-12-29T05:53:19.050Z,37.30
2018-12-29T05:56:06.202Z,40.93
2018-12-29T05:58:52.660Z,39.60
2018-12-29T06:01:38.846Z,36.07
2018-12-29T06:04:06.520Z,38.60
2018-12-29T06:06:53.535Z,39.07
2018-12-29T06:09:39.809Z,38.57
2018-12-29T06:12:26.032Z,36.27
2018-12-29T06:15:10.726Z,38.30
2018-12-29T06:23:10.653Z,39.57
2018-12-29T06:25:57.694Z,39.87
2018-12-29T06:28:41.431Z,38.37
2018-12-29T06:34:13.606Z,40.53
2018-12-29T06:39:46.777Z,39.10
2018-12-29T06:42:32.881Z,41.77
2018-12-29T06:45:19.099Z,43.20
2018-12-29T06:48:05.200Z,39.10
2018-12-29T06:50:51.471Z,39.83
2018-12-29T06:53:37.479Z,38.13
2018-12-29T06:56:23.558Z,40.27
2018-12-29T06:59:08.235Z,38.00
2018-12-29T07:01:51.875Z,39.03
2018-12-29T07:07:24.822Z,39.23
2018-12-29T07:10:09.492Z,40.13
2018-12-29T07:18:56.755Z,38.00
2018-12-29T07:24:13.172Z,38.97
2018-12-29T07:29:47.052Z,39.57
2018-12-29T07:49:10.357Z,37.20
2018-12-29T08:00:13.450Z,38.40
2018-12-29T08:08:30.640Z,37.80
2018-12-29T08:16:48.703Z,43.57
2018-12-29T08:19:34.709Z,38.60
2018-12-29T08:22:20.810Z,41.73
2018-12-29T08:25:05.337Z,45.60
2018-12-29T08:38:49.367Z,40.73
2018-12-29T08:41:35.786Z,44.00
2018-12-29T08:44:23.584Z,41.30
2018-12-29T08:47:10.189Z,40.03
2018-12-29T08:49:54.787Z,39.93
2018-12-29T08:52:41.204Z,41.50
2018-12-29T08:55:27.361Z,40.00
2018-12-29T08:58:11.985Z,42.63
2018-12-29T09:03:48.589Z,41.63
2018-12-29T09:09:21.523Z,38.43
2018-12-29T09:12:08.365Z,44.57
2018-12-29T09:17:45.565Z,40.23
2018-12-29T09:26:14.303Z,42.70
2018-12-29T09:28:58.979Z,39.00
2018-12-29T09:31:40.230Z,42.97
2018-12-29T09:34:08.358Z,41.03
2018-12-29T09:36:55.607Z,39.43
2018-12-29T09:39:35.705Z,39.50
2018-12-29T09:42:18.909Z,41.03
2018-12-29T09:44:58.735Z,36.97
2018-12-29T09:47:45.719Z,37.33
2018-12-29T09:56:29.741Z,37.70
2018-12-29T10:35:22.322Z,37.63
2018-12-29T10:50:16.596Z,36.37
2018-12-29T11:04:56.796Z,37.83
2018-12-29T11:07:37.070Z,35.13
2018-12-29T11:10:06.024Z,37.23
2018-12-29T11:12:53.153Z,37.43
2018-12-29T11:18:06.400Z,38.97
2018-12-29T11:20:59.462Z,39.10
2018-12-29T11:30:11.408Z,42.47
2018-12-29T11:32:52.816Z,42.50
2018-12-29T11:38:47.268Z,40.83
2018-12-29T11:41:34.448Z,39.43
2018-12-29T11:44:15.873Z,37.53
2018-12-29T11:46:56.569Z,40.03
2018-12-29T11:49:36.546Z,33.97
2018-12-29T12:15:41.722Z,30.23
2018-12-29T12:18:05.036Z,31.03
2018-12-29T12:20:45.218Z,33.67
2018-12-29T12:23:25.387Z,36.40
2018-12-29T12:26:05.506Z,32.00
2018-12-29T12:28:45.654Z,33.87
2018-12-29T12:31:28.898Z,31.80
2018-12-29T12:34:09.923Z,37.33
2018-12-29T12:36:49.899Z,31.53
2018-12-29T12:39:30.114Z,33.30
2018-12-29T12:42:10.140Z,35.50
2018-12-29T12:44:56.940Z,36.37
2018-12-29T12:47:43.274Z,36.13
2018-12-29T12:50:23.058Z,35.53
2018-12-29T12:53:06.175Z,34.67
2018-12-29T13:01:25.694Z,39.83
2018-12-29T13:04:12.093Z,36.63
2018-12-29T13:06:57.088Z,40.33
2018-12-29T13:09:41.946Z,40.63
2018-12-29T13:12:25.981Z,36.40
2018-12-29T13:15:10.585Z,35.13
2018-12-29T13:17:54.313Z,37.87
2018-12-29T13:20:22.104Z,32.30
2018-12-29T13:23:09.259Z,37.40
2018-12-29T13:25:56.517Z,35.97
2018-12-29T13:28:36.527Z,37.67
2018-12-29T13:31:04.462Z,33.97
2018-12-29T13:33:51.593Z,38.20
2018-12-29T13:36:38.693Z,36.23
2018-12-29T13:58:56.984Z,41.67
2018-12-29T14:04:02.687Z,41.67
2018-12-29T14:06:30.809Z,44.97
2018-12-29T14:12:19.841Z,47.77
2018-12-29T14:21:03.541Z,47.93
2018-12-29T14:40:30.619Z,44.20
2018-12-29T14:46:11.030Z,40.17
2018-12-29T14:51:44.053Z,48.00
2018-12-29T14:54:30.108Z,54.20
2018-12-29T14:57:16.407Z,41.10
2018-12-29T15:02:47.287Z,48.70
2018-12-29T15:05:33.668Z,50.13
2018-12-29T15:08:20.087Z,46.97
2018-12-29T15:11:04.643Z,46.67
2018-12-29T15:13:49.093Z,52.00
2018-12-29T15:16:35.617Z,57.20
2018-12-29T15:19:22.053Z,48.87
2018-12-29T15:22:08.233Z,55.27
2018-12-29T15:24:53.007Z,50.27
2018-12-29T15:27:39.395Z,53.47
2018-12-29T15:30:25.695Z,52.20
2018-12-29T15:33:10.479Z,52.37
2018-12-29T15:35:54.353Z,51.77
2018-12-29T15:38:40.746Z,51.33
2018-12-29T15:41:26.905Z,57.90
2018-12-29T15:44:14.370Z,56.90
2018-12-29T15:46:42.229Z,56.93
2018-12-29T15:49:26.771Z,54.70
2018-12-29T15:54:40.462Z,58.47
2018-12-29T15:57:27.656Z,61.50
2018-12-29T16:00:11.676Z,54.53
2018-12-29T16:02:56.342Z,55.40
2018-12-29T16:05:40.160Z,57.27
2018-12-29T16:08:26.452Z,61.60
2018-12-29T16:11:11.032Z,60.37
2018-12-29T16:13:57.750Z,60.60
2018-12-29T16:16:43.811Z,57.20
2018-12-29T16:19:24.086Z,59.83
2018-12-29T16:22:03.729Z,59.00
2018-12-29T16:24:44.107Z,54.90
2018-12-29T16:27:24.129Z,59.87
2018-12-29T16:30:04.260Z,59.83
2018-12-29T16:32:44.698Z,58.67
2018-12-29T16:38:07.318Z,59.13
2018-12-29T16:43:31.728Z,54.63
2018-12-29T16:46:11.316Z,55.87
2018-12-29T16:48:51.708Z,49.67
2018-12-29T16:51:32.357Z,53.30
2018-12-29T16:54:12.629Z,50.93
2018-12-29T16:59:38.623Z,53.97
2018-12-29T17:05:10.990Z,53.47
2018-12-29T17:07:52.667Z,51.97
2018-12-29T17:10:36.450Z,54.47
2018-12-29T17:13:22.688Z,52.83
2018-12-29T17:19:20.641Z,52.30
2018-12-29T17:25:19.646Z,49.67
2018-12-29T17:28:08.592Z,47.10
2018-12-29T17:31:12.589Z,52.53
2018-12-29T17:33:44.495Z,48.27
2018-12-29T17:36:32.070Z,53.07
2018-12-29T17:42:31.020Z,54.23
2018-12-29T17:45:11.082Z,55.60
2018-12-29T17:47:51.024Z,50.27
2018-12-29T17:56:05.328Z,51.33
2018-12-29T17:58:46.002Z,47.37
2018-12-29T18:01:13.752Z,51.30
2018-12-29T18:04:00.770Z,52.23
2018-12-29T18:06:41.401Z,55.27
2018-12-29T18:09:21.550Z,48.10
2018-12-29T18:14:47.816Z,50.63
2018-12-29T18:17:27.819Z,52.33
2018-12-29T18:20:07.919Z,50.73
2018-12-29T18:25:34.777Z,47.60
2018-12-29T18:28:15.324Z,46.30
2018-12-29T18:31:01.858Z,53.87
2018-12-29T18:33:43.632Z,50.27
2018-12-29T18:36:25.033Z,44.23
2018-12-29T18:41:51.051Z,46.53
2018-12-29T18:44:30.873Z,47.80
2018-12-29T18:47:11.220Z,47.80
2018-12-29T18:49:51.794Z,49.53
2018-12-29T18:52:32.656Z,44.57
2018-12-29T18:55:12.847Z,48.33
2018-12-29T19:00:40.135Z,45.23
2018-12-29T19:06:06.279Z,50.53
2018-12-29T19:08:46.185Z,44.47
2018-12-29T19:11:28.110Z,49.13
2018-12-29T19:14:08.041Z,47.90
2018-12-29T19:16:47.880Z,45.97
2018-12-29T19:19:27.663Z,45.73
2018-12-29T19:22:07.746Z,45.80
2018-12-29T19:24:47.712Z,45.83
2018-12-29T19:27:27.623Z,49.47
2018-12-29T19:30:07.511Z,43.13
2018-12-29T19:32:48.241Z,49.87
2018-12-29T19:35:28.545Z,44.57
2018-12-29T19:38:09.229Z,41.10
2018-12-29T19:43:36.082Z,45.43
2018-12-29T19:51:52.505Z,46.53
2018-12-29T19:57:18.754Z,48.10
2018-12-29T19:59:59.748Z,45.20
2018-12-29T20:02:39.943Z,46.83
2018-12-29T20:05:20.929Z,43.53
2018-12-29T20:07:48.587Z,41.80
2018-12-29T20:13:11.883Z,37.77
2018-12-29T20:15:51.826Z,40.37
2018-12-29T20:21:06.107Z,39.17
2018-12-29T20:23:54.361Z,42.77
2018-12-29T20:26:41.417Z,38.77
2018-12-29T20:29:22.009Z,34.70
2018-12-29T20:34:49.505Z,39.07
2018-12-29T20:37:30.112Z,33.80
2018-12-29T20:40:10.018Z,41.50
2018-12-29T20:42:49.887Z,39.63
2018-12-29T20:48:26.859Z,40.73
2018-12-29T20:51:13.013Z,40.27
2018-12-29T20:53:59.093Z,39.83
2018-12-29T20:56:39.281Z,38.40
2018-12-29T20:59:18.937Z,31.23
2018-12-29T21:01:59.076Z,30.27
2018-12-29T21:04:39.047Z,29.50
2018-12-29T21:07:18.966Z,25.20
2018-12-29T21:12:48.483Z,24.17
2018-12-29T21:21:04.459Z,15.43
2018-12-29T21:23:56.475Z,16.73
2018-12-29T21:29:25.798Z,13.83
2018-12-29T21:34:54.565Z,11.70
2018-12-29T21:37:40.789Z,11.53
2018-12-29T21:40:20.966Z,10.77
2018-12-29T21:43:07.229Z,7.50
2018-12-29T21:45:47.000Z,7.90
2018-12-29T21:48:27.140Z,10.33
2018-12-29T21:51:07.219Z,11.83
2018-12-29T21:53:47.205Z,11.77
2018-12-29T21:56:27.430Z,9.13
2018-12-29T21:59:08.763Z,11.00
2018-12-29T22:01:48.907Z,10.23
2018-12-29T22:04:29.191Z,10.37
2018-12-29T22:07:10.088Z,10.87
2018-12-29T22:12:33.267Z,7.77
2018-12-29T22:15:13.416Z,7.30
2018-12-29T22:20:40.986Z,12.07
2018-12-29T22:26:13.943Z,10.50
2018-12-29T22:28:59.647Z,11.43
2018-12-29T22:31:39.753Z,7.23
2018-12-29T22:34:22.099Z,11.23
2018-12-29T22:37:01.943Z,10.07
2018-12-29T22:39:41.980Z,10.40
2018-12-29T22:42:22.033Z,12.43
2018-12-29T22:45:02.317Z,11.17
2018-12-29T22:47:42.605Z,24.60
2018-12-29T22:50:22.657Z,17.10
2018-12-29T22:53:02.906Z,10.90
2018-12-29T22:55:42.996Z,9.47
2018-12-29T22:58:23.200Z,9.17
2018-12-29T23:01:03.355Z,11.83
2018-12-29T23:03:43.637Z,7.50
2018-12-29T23:06:23.327Z,13.63
2018-12-29T23:09:04.913Z,10.10
2018-12-29T23:11:45.242Z,9.97
2018-12-29T23:14:25.471Z,8.07
2018-12-29T23:17:06.340Z,13.10
2018-12-29T23:19:46.358Z,8.27
2018-12-29T23:22:26.462Z,10.27
2018-12-29T23:25:06.379Z,13.50
2018-12-29T23:27:46.444Z,10.10
2018-12-29T23:30:26.568Z,15.27
2018-12-29T23:33:06.448Z,13.53
2018-12-29T23:35:46.663Z,14.07
2018-12-29T23:38:26.544Z,11.73
2018-12-29T23:41:06.649Z,8.13
2018-12-29T23:43:46.672Z,13.33
2018-12-29T23:46:26.545Z,12.73
2018-12-29T23:49:06.687Z,10.33
2018-12-29T23:51:47.793Z,13.23
2018-12-29T23:54:28.087Z,10.67
2018-12-29T23:57:08.029Z,14.83
2018-12-29T23:59:48.106Z,10.40
